createdAt,value
2023-01-04T00:02:05.719Z,88.46
2023-01-04T00:04:34.270Z,87.18
2023-01-04T00:07:02.685Z,87.40
2023-01-04T00:09:31.219Z,88.42
2023-01-04T00:11:59.652Z,89.48
2023-01-04T00:14:28.161Z,89.73
2023-01-04T00:16:57.968Z,88.64
2023-01-04T00:19:26.430Z,90.20
2023-01-04T00:21:54.902Z,90.18
2023-01-04T00:24:23.531Z,89.44
2023-01-04T00:26:51.994Z,89.04
2023-01-04T00:29:20.670Z,89.26
2023-01-04T00:31:49.343Z,88.95
2023-01-04T00:34:19.958Z,89.16
2023-01-04T00:36:48.914Z,89.63
2023-01-04T00:39:18.182Z,89.57
2023-01-04T00:42:04.227Z,89.44
2023-01-04T00:44:34.447Z,88.54
2023-01-04T00:47:04.840Z,90.00
2023-01-04T00:49:34.907Z,90.34
2023-01-04T00:52:04.632Z,89.14
2023-01-04T00:54:33.103Z,88.99
2023-01-04T00:57:01.599Z,89.26
2023-01-04T00:59:30.025Z,89.77
2023-01-04T01:01:58.722Z,89.23
2023-01-04T01:04:27.550Z,88.92
2023-01-04T01:06:57.402Z,89.19
2023-01-04T01:09:26.105Z,89.31
2023-01-04T01:11:55.201Z,89.64
2023-01-04T01:14:26.274Z,88.70
2023-01-04T01:16:57.773Z,89.83
2023-01-04T01:19:28.900Z,89.50
2023-01-04T01:21:59.441Z,88.11
2023-01-04T01:24:28.380Z,89.71
2023-01-04T01:26:57.514Z,88.93
2023-01-04T01:29:26.297Z,88.71
2023-01-04T01:31:54.880Z,90.06
2023-01-04T01:34:23.533Z,89.52
2023-01-04T01:36:51.966Z,89.92
2023-01-04T01:39:21.812Z,90.37
2023-01-04T01:41:50.676Z,91.31
2023-01-04T01:44:59.421Z,91.02
2023-01-04T01:47:33.163Z,91.81
2023-01-04T01:50:02.714Z,90.25
2023-01-04T01:52:33.731Z,91.46
2023-01-04T01:55:08.515Z,90.61
2023-01-04T01:57:38.895Z,91.98
2023-01-04T02:00:12.760Z,91.72
2023-01-04T02:02:54.744Z,91.50
2023-01-04T02:05:23.588Z,90.84
2023-01-04T02:07:52.862Z,90.09
2023-01-04T02:10:23.790Z,90.02
2023-01-04T02:12:53.846Z,91.13
2023-01-04T02:15:28.424Z,91.67
2023-01-04T02:18:05.738Z,91.48
2023-01-04T02:20:41.148Z,90.36
2023-01-04T02:23:45.129Z,90.67
2023-01-04T02:26:41.950Z,90.93
2023-01-04T02:29:48.094Z,89.90
2023-01-04T02:32:27.631Z,89.86
2023-01-04T02:35:04.441Z,91.11
2023-01-04T02:37:42.415Z,90.33
2023-01-04T02:40:19.154Z,90.35
2023-01-04T02:43:16.038Z,89.95
2023-01-04T02:45:53.999Z,91.11
2023-01-04T02:48:41.515Z,90.16
2023-01-04T02:51:27.587Z,90.89
2023-01-04T02:53:58.406Z,91.04
2023-01-04T02:56:38.809Z,90.97
2023-01-04T02:59:24.279Z,90.03
2023-01-04T03:02:20.253Z,90.36
2023-01-04T03:05:18.497Z,90.69
2023-01-04T03:07:53.387Z,89.91
2023-01-04T03:10:27.241Z,90.35
2023-01-04T03:13:02.246Z,89.27
2023-01-04T03:15:34.913Z,88.94
2023-01-04T03:18:11.151Z,89.66
2023-01-04T03:20:43.605Z,88.95
2023-01-04T03:23:34.158Z,90.68
2023-01-04T03:26:25.054Z,90.61
2023-01-04T03:29:12.848Z,91.02
2023-01-04T03:32:03.234Z,90.79
2023-01-04T03:34:49.186Z,90.57
2023-01-04T03:37:25.465Z,90.81
2023-01-04T03:40:24.113Z,90.26
2023-01-04T03:43:18.628Z,89.66
2023-01-04T03:46:09.236Z,89.38
2023-01-04T03:48:44.299Z,90.08
2023-01-04T03:51:16.118Z,89.39
2023-01-04T03:53:53.790Z,89.25
2023-01-04T03:56:24.967Z,89.82
2023-01-04T03:58:54.657Z,89.33
2023-01-04T04:01:26.017Z,89.26
2023-01-04T04:04:12.490Z,88.50
2023-01-04T04:06:58.897Z,88.92
2023-01-04T04:09:28.746Z,89.69
2023-01-04T04:11:57.605Z,88.80
2023-01-04T04:14:26.137Z,89.49
2023-01-04T04:16:54.755Z,88.97
2023-01-04T04:19:23.337Z,89.31
2023-01-04T04:21:51.791Z,89.09
2023-01-04T04:24:21.762Z,88.51
2023-01-04T04:26:51.702Z,89.26
2023-01-04T04:29:20.177Z,89.58
2023-01-04T04:31:48.831Z,90.28
2023-01-04T04:34:17.443Z,90.60
2023-01-04T04:36:45.994Z,90.00
2023-01-04T04:39:14.580Z,90.60
2023-01-04T04:41:42.165Z,89.65
2023-01-04T04:44:14.272Z,89.50
2023-01-04T04:46:42.937Z,89.49
2023-01-04T04:49:13.636Z,90.04
2023-01-04T04:51:42.687Z,89.33
2023-01-04T04:54:12.839Z,89.23
2023-01-04T04:56:41.319Z,89.39
2023-01-04T04:59:09.801Z,89.29
2023-01-04T05:01:39.862Z,89.80
2023-01-04T05:04:08.639Z,89.63
2023-01-04T05:06:37.115Z,90.49
2023-01-04T05:09:05.602Z,90.63
2023-01-04T05:11:52.119Z,90.53
2023-01-04T05:14:20.706Z,90.93
2023-01-04T05:16:50.665Z,90.48
2023-01-04T05:19:19.288Z,90.68
2023-01-04T05:21:47.793Z,90.36
2023-01-04T05:24:16.283Z,90.52
2023-01-04T05:26:44.948Z,90.11
2023-01-04T05:29:34.258Z,89.61
2023-01-04T05:32:03.357Z,89.54
2023-01-04T05:34:31.878Z,89.37
2023-01-04T05:37:00.374Z,89.22
2023-01-04T05:39:30.814Z,89.68
2023-01-04T05:42:17.077Z,90.12
2023-01-04T05:44:45.576Z,90.38
2023-01-04T05:47:15.526Z,89.94
2023-01-04T05:49:44.101Z,89.93
2023-01-04T05:52:12.820Z,90.36
2023-01-04T05:54:41.573Z,90.23
2023-01-04T05:57:10.696Z,91.18
2023-01-04T05:59:42.081Z,90.17
2023-01-04T06:02:18.808Z,91.69
2023-01-04T06:04:51.489Z,91.00
2023-01-04T06:07:23.878Z,90.41
2023-01-04T06:09:52.415Z,90.54
2023-01-04T06:12:20.864Z,90.56
2023-01-04T06:14:49.525Z,90.74
2023-01-04T06:17:19.579Z,91.11
2023-01-04T06:19:48.099Z,90.87
2023-01-04T06:22:16.664Z,89.81
2023-01-04T06:24:45.235Z,90.31
2023-01-04T06:27:13.795Z,90.33
2023-01-04T06:29:42.245Z,90.39
2023-01-04T06:32:10.819Z,89.83
2023-01-04T06:34:40.658Z,90.27
2023-01-04T06:37:09.792Z,89.56
2023-01-04T06:39:38.347Z,90.28
2023-01-04T06:42:27.145Z,90.99
2023-01-04T06:44:55.608Z,91.30
2023-01-04T06:47:24.044Z,90.25
2023-01-04T06:49:53.966Z,90.62
2023-01-04T06:52:22.565Z,91.17
2023-01-04T06:54:51.004Z,91.06
2023-01-04T06:57:19.465Z,91.14
2023-01-04T06:59:48.102Z,91.56
2023-01-04T07:02:17.503Z,90.83
2023-01-04T07:04:46.080Z,90.88
2023-01-04T07:07:15.951Z,90.39
2023-01-04T07:09:44.416Z,91.21
2023-01-04T07:12:12.893Z,89.87
2023-01-04T07:14:41.928Z,90.38
2023-01-04T07:17:10.375Z,90.43
2023-01-04T07:19:38.929Z,89.78
2023-01-04T07:22:07.502Z,90.71
2023-01-04T07:24:37.353Z,90.67
2023-01-04T07:27:05.848Z,89.67
2023-01-04T07:29:34.343Z,91.00
2023-01-04T07:32:02.996Z,89.80
2023-01-04T07:34:31.516Z,90.00
2023-01-04T07:36:59.971Z,90.33
2023-01-04T07:39:28.455Z,91.01
2023-01-04T07:41:58.309Z,90.12
2023-01-04T07:44:28.087Z,89.53
2023-01-04T07:46:57.554Z,90.29
2023-01-04T07:49:26.063Z,90.70
2023-01-04T07:51:54.605Z,90.41
2023-01-04T07:54:24.029Z,91.19
2023-01-04T07:56:52.755Z,90.75
2023-01-04T07:59:23.278Z,89.73
2023-01-04T08:01:52.109Z,90.71
2023-01-04T08:04:27.145Z,90.75
2023-01-04T08:06:58.218Z,89.60
2023-01-04T08:09:26.916Z,89.85
2023-01-04T08:11:55.439Z,90.29
2023-01-04T08:14:25.237Z,90.41
2023-01-04T08:16:53.772Z,90.99
2023-01-04T08:19:22.855Z,90.01
2023-01-04T08:21:51.371Z,90.35
2023-01-04T08:24:22.319Z,90.43
2023-01-04T08:26:50.932Z,91.16
2023-01-04T08:29:19.466Z,90.92
2023-01-04T08:31:49.454Z,91.62
2023-01-04T08:34:18.047Z,91.44
2023-01-04T08:36:49.253Z,90.96
2023-01-04T08:39:18.005Z,91.76
2023-01-04T08:44:42.723Z,90.95
2023-01-04T08:47:12.594Z,91.94
2023-01-04T08:49:41.041Z,91.23
2023-01-04T08:52:11.681Z,91.77
2023-01-04T08:54:40.289Z,90.98
2023-01-04T08:57:08.819Z,90.90
2023-01-04T08:59:37.338Z,91.43
2023-01-04T09:02:11.385Z,91.66
2023-01-04T09:04:41.557Z,91.40
2023-01-04T09:07:10.094Z,92.21
2023-01-04T09:09:38.589Z,91.99
2023-01-04T09:12:07.490Z,90.71
2023-01-04T09:14:36.545Z,91.62
2023-01-04T09:17:05.570Z,92.42
2023-01-04T09:19:34.216Z,91.84
2023-01-04T09:22:04.215Z,92.26
2023-01-04T09:24:33.737Z,92.85
2023-01-04T09:27:03.069Z,93.28
2023-01-04T09:29:31.682Z,93.46
2023-01-04T09:32:00.304Z,93.56
2023-01-04T09:34:29.146Z,92.80
2023-01-04T09:36:57.675Z,92.89
2023-01-04T09:39:30.420Z,92.78
2023-01-04T09:42:01.396Z,92.32
2023-01-04T09:47:38.032Z,91.77
2023-01-04T09:50:13.964Z,92.00
2023-01-04T09:52:52.313Z,92.51
2023-01-04T09:55:37.412Z,92.22
2023-01-04T09:58:23.220Z,91.91
2023-01-04T10:00:56.646Z,93.77
2023-01-04T10:03:28.837Z,93.42
2023-01-04T10:05:58.059Z,93.57
2023-01-04T10:08:26.665Z,92.05
2023-01-04T10:11:08.679Z,92.45
2023-01-04T10:13:53.365Z,92.17
2023-01-04T10:16:44.613Z,92.23
2023-01-04T10:22:26.737Z,92.65
2023-01-04T10:25:07.354Z,92.45
2023-01-04T10:27:48.273Z,92.14
2023-01-04T10:30:30.371Z,92.65
2023-01-04T10:33:11.038Z,92.56
2023-01-04T10:35:40.978Z,92.31
2023-01-04T10:38:13.957Z,92.12
2023-01-04T10:40:42.867Z,91.56
2023-01-04T10:43:20.468Z,91.34
2023-01-04T10:45:55.362Z,91.57
2023-01-04T10:48:32.182Z,91.79
2023-01-04T10:51:09.374Z,91.34
2023-01-04T10:53:45.360Z,90.83
2023-01-04T10:56:26.033Z,91.10
2023-01-04T10:59:04.524Z,89.98
2023-01-04T11:01:39.452Z,89.21
2023-01-04T11:04:14.842Z,86.29
2023-01-04T11:06:48.020Z,84.80
2023-01-04T11:09:25.065Z,84.90
2023-01-04T11:11:57.735Z,85.18
2023-01-04T11:14:33.343Z,86.88
2023-01-04T11:17:08.257Z,86.30
2023-01-04T11:19:37.680Z,84.55
2023-01-04T11:22:15.396Z,84.34
2023-01-04T11:25:07.779Z,83.27
2023-01-04T11:27:42.890Z,83.17
2023-01-04T11:30:18.439Z,82.22
2023-01-04T11:32:54.012Z,80.00
2023-01-04T11:35:42.568Z,82.01
2023-01-04T11:38:16.750Z,81.08
2023-01-04T11:41:05.645Z,80.81
2023-01-04T11:43:35.590Z,81.55
2023-01-04T11:46:06.624Z,81.20
2023-01-04T11:48:38.798Z,79.85
2023-01-04T11:51:19.038Z,80.08
2023-01-04T11:53:57.240Z,79.78
2023-01-04T11:56:27.669Z,80.79
2023-01-04T11:59:11.879Z,82.08
2023-01-04T12:01:44.803Z,81.77
2023-01-04T12:04:16.498Z,80.99
2023-01-04T12:06:51.142Z,81.11
2023-01-04T12:09:21.423Z,80.59
2023-01-04T12:11:52.022Z,81.11
2023-01-04T12:14:26.138Z,81.53
2023-01-04T12:17:05.268Z,81.20
2023-01-04T12:19:34.863Z,81.60
2023-01-04T12:22:05.661Z,80.31
2023-01-04T12:24:35.517Z,80.52
2023-01-04T12:27:04.487Z,79.50
2023-01-04T12:29:41.804Z,79.24
2023-01-04T12:32:41.909Z,80.01
2023-01-04T12:35:43.762Z,76.95
2023-01-04T12:38:12.583Z,78.44
2023-01-04T12:40:55.271Z,78.93
2023-01-04T12:43:28.196Z,81.20
2023-01-04T12:46:59.914Z,81.00
2023-01-04T12:49:52.336Z,81.66
2023-01-04T12:52:55.351Z,80.86
2023-01-04T12:55:54.155Z,80.60
2023-01-04T13:01:31.352Z,79.38
2023-01-04T13:04:06.172Z,79.88
2023-01-04T13:06:46.205Z,80.93
2023-01-04T13:09:24.030Z,79.24
2023-01-04T13:12:07.389Z,78.80
2023-01-04T13:14:40.595Z,79.30
2023-01-04T13:17:21.855Z,78.78
2023-01-04T13:19:50.942Z,79.73
2023-01-04T13:22:29.760Z,80.31
2023-01-04T13:25:01.719Z,80.20
2023-01-04T13:27:30.229Z,79.81
2023-01-04T13:29:59.099Z,81.02
2023-01-04T13:32:29.975Z,79.68
2023-01-04T13:35:05.743Z,80.71
2023-01-04T13:37:43.411Z,81.65
2023-01-04T13:40:26.837Z,82.24
2023-01-04T13:43:11.702Z,79.34
2023-01-04T13:45:52.918Z,79.93
2023-01-04T13:48:23.886Z,80.19
2023-01-04T13:51:04.051Z,81.31
2023-01-04T13:53:34.089Z,80.98
2023-01-04T13:56:04.105Z,80.75
2023-01-04T13:58:34.270Z,77.58
2023-01-04T14:01:05.634Z,78.09
2023-01-04T14:03:38.520Z,75.84
2023-01-04T14:06:18.144Z,74.88
2023-01-04T14:08:54.152Z,75.80
2023-01-04T14:11:42.016Z,73.65
2023-01-04T14:14:23.853Z,73.58
2023-01-04T14:17:05.167Z,74.42
2023-01-04T14:19:42.621Z,72.84
2023-01-04T14:22:39.246Z,72.63
2023-01-04T14:25:56.464Z,72.86
2023-01-04T14:28:49.435Z,72.41
2023-01-04T14:31:35.818Z,72.18
2023-01-04T14:34:12.155Z,72.20
2023-01-04T14:36:43.209Z,72.68
2023-01-04T14:39:26.790Z,72.04
2023-01-04T14:41:57.562Z,72.44
2023-01-04T14:44:30.884Z,72.81
2023-01-04T14:47:01.333Z,71.60
2023-01-04T14:49:31.397Z,72.33
2023-01-04T14:52:01.836Z,71.77
2023-01-04T14:54:31.751Z,71.96
2023-01-04T14:57:00.490Z,72.49
2023-01-04T14:59:30.426Z,72.27
2023-01-04T15:01:59.437Z,71.61
2023-01-04T15:04:28.027Z,72.96
2023-01-04T15:06:58.949Z,73.28
2023-01-04T15:09:28.044Z,72.73
2023-01-04T15:11:56.896Z,73.35
2023-01-04T15:14:25.674Z,73.02
2023-01-04T15:16:55.512Z,72.30
2023-01-04T15:19:23.999Z,72.07
2023-01-04T15:21:52.523Z,71.38
2023-01-04T15:24:21.263Z,71.85
2023-01-04T15:26:49.915Z,71.88
2023-01-04T15:29:18.473Z,72.68
2023-01-04T15:31:47.028Z,72.57
2023-01-04T15:34:17.968Z,72.55
2023-01-04T15:36:46.537Z,72.47
2023-01-04T15:39:15.599Z,72.58
2023-01-04T15:42:01.451Z,71.96
2023-01-04T15:44:29.947Z,71.55
2023-01-04T15:46:59.397Z,70.32
2023-01-04T15:49:31.588Z,70.53
2023-01-04T15:52:00.124Z,70.92
2023-01-04T15:54:29.364Z,70.57
2023-01-04T15:56:57.913Z,70.74
2023-01-04T15:59:26.666Z,70.59
2023-01-04T16:01:55.854Z,71.10
2023-01-04T16:04:25.686Z,70.24
2023-01-04T16:06:55.623Z,69.65
2023-01-04T16:09:24.418Z,70.47
2023-01-04T16:12:10.890Z,70.08
2023-01-04T16:14:39.615Z,70.67
2023-01-04T16:17:08.144Z,70.38
2023-01-04T16:19:36.893Z,69.72
2023-01-04T16:22:07.016Z,70.21
2023-01-04T16:25:09.160Z,70.29
2023-01-04T16:27:23.846Z,69.83
2023-01-04T16:29:52.494Z,69.78
2023-01-04T16:32:25.855Z,69.58
2023-01-04T16:34:54.671Z,69.68
2023-01-04T16:37:28.032Z,69.68
2023-01-04T16:40:06.294Z,69.71
2023-01-04T16:42:36.985Z,69.84
2023-01-04T16:45:06.915Z,70.00
2023-01-04T16:47:39.921Z,70.40
2023-01-04T16:50:09.702Z,69.98
2023-01-04T16:52:40.441Z,69.88
2023-01-04T16:55:10.743Z,68.81
2023-01-04T16:57:39.652Z,69.24
2023-01-04T17:00:09.767Z,69.21
2023-01-04T17:02:39.116Z,69.09
2023-01-04T17:05:08.769Z,69.39
2023-01-04T17:07:37.585Z,69.03
2023-01-04T17:10:08.549Z,68.90
2023-01-04T17:12:52.786Z,69.09
2023-01-04T17:18:12.396Z,68.55
2023-01-04T17:20:41.385Z,67.58
2023-01-04T17:23:10.018Z,68.00
2023-01-04T17:25:40.041Z,68.42
2023-01-04T17:28:08.578Z,68.07
2023-01-04T17:30:39.430Z,68.65
2023-01-04T17:33:07.931Z,68.73
2023-01-04T17:35:36.887Z,67.93
2023-01-04T17:38:06.198Z,68.13
2023-01-04T17:40:35.955Z,67.53
2023-01-04T17:43:05.700Z,68.48
2023-01-04T17:45:34.258Z,68.34
2023-01-04T17:48:02.901Z,67.50
2023-01-04T17:50:31.338Z,67.59
2023-01-04T17:53:00.652Z,67.46
2023-01-04T17:55:29.290Z,68.12
2023-01-04T17:57:58.464Z,67.50
2023-01-04T18:00:28.360Z,67.93
2023-01-04T18:02:56.680Z,68.28
2023-01-04T18:05:25.243Z,67.95
2023-01-04T18:07:53.728Z,67.17
2023-01-04T18:10:40.747Z,67.35
2023-01-04T18:13:11.019Z,67.39
2023-01-04T18:15:54.957Z,68.67
2023-01-04T18:18:29.561Z,68.61
2023-01-04T18:20:59.225Z,68.71
2023-01-04T18:23:30.648Z,68.10
2023-01-04T18:26:02.581Z,67.66
2023-01-04T18:28:31.361Z,68.44
2023-01-04T18:31:01.520Z,68.44
2023-01-04T18:33:30.245Z,68.83
2023-01-04T18:36:02.897Z,68.83
2023-01-04T18:38:31.718Z,69.25
2023-01-04T18:41:00.380Z,69.35
2023-01-04T18:43:29.149Z,68.93
2023-01-04T18:45:57.700Z,69.09
2023-01-04T18:48:28.026Z,68.57
2023-01-04T18:51:03.012Z,69.14
2023-01-04T18:53:31.731Z,69.00
2023-01-04T18:56:00.559Z,68.37
2023-01-04T18:58:30.087Z,69.42
2023-01-04T19:01:02.408Z,69.74
2023-01-04T19:03:34.442Z,69.16
2023-01-04T19:06:07.218Z,69.90
2023-01-04T19:08:36.734Z,69.65
2023-01-04T19:11:05.768Z,70.48
2023-01-04T19:13:34.906Z,70.46
2023-01-04T19:16:03.438Z,70.67
2023-01-04T19:18:33.401Z,70.23
2023-01-04T19:21:02.837Z,70.96
2023-01-04T19:23:31.750Z,71.15
2023-01-04T19:26:00.744Z,70.88
2023-01-04T19:28:29.252Z,71.71
2023-01-04T19:30:57.862Z,71.76
2023-01-04T19:33:26.443Z,71.21
2023-01-04T19:35:56.273Z,71.51
2023-01-04T19:38:24.618Z,71.44
2023-01-04T19:40:56.388Z,71.93
2023-01-04T19:43:25.043Z,71.80
2023-01-04T19:45:53.764Z,72.22
2023-01-04T19:48:23.846Z,72.67
2023-01-04T19:51:04.569Z,72.48
2023-01-04T19:53:33.168Z,72.32
2023-01-04T19:56:02.022Z,72.65
2023-01-04T19:58:30.958Z,72.89
2023-01-04T20:01:00.097Z,72.55
2023-01-04T20:03:29.026Z,72.71
2023-01-04T20:06:04.448Z,73.18
2023-01-04T20:08:33.451Z,73.15
2023-01-04T20:11:03.441Z,73.12
2023-01-04T20:13:33.287Z,73.54
2023-01-04T20:16:04.054Z,73.08
2023-01-04T20:18:34.320Z,73.10
2023-01-04T20:21:09.412Z,73.83
2023-01-04T20:23:38.922Z,73.56
2023-01-04T20:26:11.629Z,73.77
2023-01-04T20:28:41.881Z,73.85
2023-01-04T20:31:12.592Z,73.66
2023-01-04T20:33:41.467Z,74.01
2023-01-04T20:36:14.060Z,74.29
2023-01-04T20:38:44.572Z,74.32
2023-01-04T20:41:16.177Z,74.69
2023-01-04T20:43:45.219Z,74.41
2023-01-04T20:46:15.701Z,74.24
2023-01-04T20:48:44.814Z,74.13
2023-01-04T20:51:17.311Z,74.14
2023-01-04T20:53:46.552Z,74.91
2023-01-04T20:56:17.061Z,74.70
2023-01-04T20:58:46.603Z,74.72
2023-01-04T21:01:16.444Z,75.10
2023-01-04T21:03:45.622Z,74.85
2023-01-04T21:06:17.662Z,75.48
2023-01-04T21:08:47.881Z,75.33
2023-01-04T21:11:16.495Z,75.06
2023-01-04T21:13:45.709Z,75.76
2023-01-04T21:16:15.292Z,76.18
2023-01-04T21:18:44.251Z,76.39
2023-01-04T21:21:16.991Z,76.63
2023-01-04T21:23:45.870Z,77.19
2023-01-04T21:26:16.381Z,76.93
2023-01-04T21:28:46.029Z,76.96
2023-01-04T21:31:16.603Z,76.93
2023-01-04T21:33:46.741Z,77.25
2023-01-04T21:36:19.142Z,77.17
2023-01-04T21:38:49.339Z,77.60
2023-01-04T21:41:18.349Z,77.66
2023-01-04T21:43:46.998Z,77.34
2023-01-04T21:46:16.543Z,77.94
2023-01-04T21:48:48.111Z,77.77
2023-01-04T21:51:18.724Z,77.52
2023-01-04T21:53:47.626Z,77.33
2023-01-04T21:56:18.836Z,77.65
2023-01-04T21:58:47.885Z,77.37
2023-01-04T22:01:18.956Z,77.26
2023-01-04T22:03:48.028Z,77.78
2023-01-04T22:06:18.888Z,77.63
2023-01-04T22:08:48.120Z,77.82
2023-01-04T22:11:17.157Z,78.24
2023-01-04T22:13:45.858Z,78.07
2023-01-04T22:16:16.143Z,78.30
2023-01-04T22:18:48.051Z,78.42
2023-01-04T22:21:20.635Z,78.67
2023-01-04T22:23:49.213Z,77.90
2023-01-04T22:26:17.842Z,78.00
2023-01-04T22:28:47.058Z,78.19
2023-01-04T22:31:15.953Z,78.21
2023-01-04T22:33:44.610Z,77.91
2023-01-04T22:36:21.769Z,77.75
2023-01-04T22:38:53.852Z,77.71
2023-01-04T22:41:24.264Z,77.58
2023-01-04T22:43:57.552Z,77.76
2023-01-04T22:46:27.484Z,77.81
2023-01-04T22:48:56.325Z,77.67
2023-01-04T22:51:27.273Z,77.00
2023-01-04T22:53:59.049Z,76.63
2023-01-04T22:56:28.578Z,76.69
2023-01-04T22:58:58.729Z,76.64
2023-01-04T23:01:29.254Z,76.99
2023-01-04T23:03:59.694Z,77.01
2023-01-04T23:06:29.400Z,76.91
2023-01-04T23:09:01.368Z,77.11
2023-01-04T23:11:31.601Z,76.90
2023-01-04T23:14:02.187Z,77.15
2023-01-04T23:16:32.972Z,77.29
2023-01-04T23:19:02.702Z,76.94
2023-01-04T23:21:31.237Z,76.73
2023-01-04T23:24:01.950Z,76.52
2023-01-04T23:26:31.393Z,76.67
2023-01-04T23:29:00.717Z,76.61
2023-01-04T23:31:31.720Z,76.36
2023-01-04T23:34:02.528Z,76.20
2023-01-04T23:36:33.349Z,76.45
2023-01-04T23:39:06.389Z,76.24
2023-01-04T23:41:47.553Z,76.15
2023-01-04T23:44:19.227Z,75.80
2023-01-04T23:46:51.220Z,75.74
2023-01-04T23:49:19.678Z,75.81
2023-01-04T23:51:48.386Z,75.41
2023-01-04T23:54:18.526Z,75.24
2023-01-04T23:56:47.198Z,74.82
2023-01-04T23:59:15.705Z,74.67
